KIDP

Independence Municipal Airport

Independence, Kansas, USA
METAR KIDP 170735Z AUTO 19011KT 10SM -RA BKN008 BKN017 OVC030 06/06 A3001 RMK AO2 P0002 T00650058
Observed Flight Rules
Dec-17 @ 07:35 UTC (31 minutes ago) Instrument Flight Rules
Wind Visibility Clouds Conditions
190° at 11 knots 10 miles
  • Broken at 800' AGL
  • Broken at 1,700' AGL
  • Overcast at 3,000' AGL
  • Light Rain
Temperatures Readings Precipitation
Current 7°C / 45°F
Dewpoint 6°C / 43°F
Humidity 93%
Altimeter 30.01" Hg
Pressure 1016 hPa
Elevation 251
Current Rain 0.02
METAR KIDP 170735Z AUTO 19011KT 10SM -RA BKN008 BKN017 OVC030 06/06 A3001 RMK AO2 P0002 T00650058
Observed Flight Rules
Dec-17 @ 07:35 UTC
(31 minutes ago)
IFR
Wind Visibility
190° at 11 knots 10 miles
Clouds
  • Broken at 800' AGL
  • Broken at 1,700' AGL
  • Overcast at 3,000' AGL
Conditions
  • Light Rain
Temperature Dewpoint
7°C / 45°F 6°C / 43°F
Humidity Altimeter Pressure
93% 30.01" Hg 1016 hPa
Current Rain
0.02